sensor_id;sensor_type;location;lat;lon;timestamp;P1;durP1;ratioP1;P2;durP2;ratioP2
3567;SDS011;1798;48.486;9.232;2022-12-20T00:00:44;27.53;;;16.70;;
3567;SDS011;1798;48.486;9.232;2022-12-20T00:03:11;47.97;;;23.57;;
3567;SDS011;1798;48.486;9.232;2022-12-20T00:05:38;44.47;;;21.23;;
3567;SDS011;1798;48.486;9.232;2022-12-20T00:08:05;36.20;;;19.03;;
3567;SDS011;1798;48.486;9.232;2022-12-20T00:10:34;42.77;;;22.70;;
3567;SDS011;1798;48.486;9.232;2022-12-20T00:13:02;46.00;;;23.63;;
3567;SDS011;1798;48.486;9.232;2022-12-20T00:15:29;38.67;;;23.57;;
3567;SDS011;1798;48.486;9.232;2022-12-20T00:17:56;42.70;;;22.17;;
3567;SDS011;1798;48.486;9.232;2022-12-20T00:20:23;36.60;;;22.10;;
3567;SDS011;1798;48.486;9.232;2022-12-20T00:22:51;45.73;;;22.60;;
3567;SDS011;1798;48.486;9.232;2022-12-20T00:25:19;47.90;;;22.60;;
3567;SDS011;1798;48.486;9.232;2022-12-20T00:27:46;29.90;;;15.50;;
3567;SDS011;1798;48.486;9.232;2022-12-20T00:30:14;48.97;;;22.40;;
3567;SDS011;1798;48.486;9.232;2022-12-20T00:32:42;35.97;;;19.33;;
3567;SDS011;1798;48.486;9.232;2022-12-20T00:35:10;58.43;;;22.10;;
3567;SDS011;1798;48.486;9.232;2022-12-20T00:37:36;40.97;;;20.60;;
3567;SDS011;1798;48.486;9.232;2022-12-20T00:40:03;41.60;;;20.73;;
3567;SDS011;1798;48.486;9.232;2022-12-20T00:42:31;37.97;;;21.00;;
3567;SDS011;1798;48.486;9.232;2022-12-20T00:44:58;31.47;;;18.23;;
3567;SDS011;1798;48.486;9.232;2022-12-20T00:47:26;28.50;;;16.90;;
3567;SDS011;1798;48.486;9.232;2022-12-20T00:49:53;44.20;;;21.40;;
3567;SDS011;1798;48.486;9.232;2022-12-20T00:52:19;42.67;;;20.63;;
3567;SDS011;1798;48.486;9.232;2022-12-20T00:54:46;30.10;;;16.70;;
3567;SDS011;1798;48.486;9.232;2022-12-20T00:57:13;35.30;;;15.57;;
3567;SDS011;1798;48.486;9.232;2022-12-20T00:59:40;40.10;;;21.60;;
3567;SDS011;1798;48.486;9.232;2022-12-20T01:02:06;41.37;;;23.20;;
3567;SDS011;1798;48.486;9.232;2022-12-20T01:04:34;28.03;;;18.37;;
3567;SDS011;1798;48.486;9.232;2022-12-20T01:07:01;32.83;;;17.13;;
3567;SDS011;1798;48.486;9.232;2022-12-20T01:09:28;46.50;;;24.43;;
3567;SDS011;1798;48.486;9.232;2022-12-20T01:11:55;49.23;;;21.90;;
3567;SDS011;1798;48.486;9.232;2022-12-20T01:14:22;56.80;;;26.53;;
3567;SDS011;1798;48.486;9.232;2022-12-20T01:16:49;48.07;;;25.00;;
3567;SDS011;1798;48.486;9.232;2022-12-20T01:19:16;44.23;;;21.97;;
3567;SDS011;1798;48.486;9.232;2022-12-20T01:21:45;59.20;;;25.43;;
3567;SDS011;1798;48.486;9.232;2022-12-20T01:24:13;53.17;;;28.63;;
3567;SDS011;1798;48.486;9.232;2022-12-20T01:26:41;49.77;;;23.03;;
3567;SDS011;1798;48.486;9.232;2022-12-20T01:29:08;44.73;;;22.10;;
3567;SDS011;1798;48.486;9.232;2022-12-20T01:31:35;43.37;;;22.23;;
3567;SDS011;1798;48.486;9.232;2022-12-20T01:34:02;37.73;;;18.77;;
3567;SDS011;1798;48.486;9.232;2022-12-20T01:36:29;41.43;;;19.30;;
3567;SDS011;1798;48.486;9.232;2022-12-20T01:39:00;33.63;;;17.60;;
3567;SDS011;1798;48.486;9.232;2022-12-20T01:41:30;41.67;;;18.70;;
3567;SDS011;1798;48.486;9.232;2022-12-20T01:43:58;33.57;;;17.60;;
3567;SDS011;1798;48.486;9.232;2022-12-20T01:46:27;29.33;;;16.23;;
3567;SDS011;1798;48.486;9.232;2022-12-20T01:48:55;32.37;;;16.63;;
3567;SDS011;1798;48.486;9.232;2022-12-20T01:51:24;33.30;;;16.87;;
3567;SDS011;1798;48.486;9.232;2022-12-20T01:53:53;36.93;;;16.07;;
3567;SDS011;1798;48.486;9.232;2022-12-20T01:56:23;28.37;;;17.17;;
3567;SDS011;1798;48.486;9.232;2022-12-20T01:58:49;28.37;;;16.13;;
3567;SDS011;1798;48.486;9.232;2022-12-20T02:01:17;29.87;;;14.70;;
3567;SDS011;1798;48.486;9.232;2022-12-20T02:03:44;23.20;;;13.40;;
3567;SDS011;1798;48.486;9.232;2022-12-20T02:06:14;27.23;;;13.90;;
3567;SDS011;1798;48.486;9.232;2022-12-20T02:08:42;24.97;;;14.07;;
3567;SDS011;1798;48.486;9.232;2022-12-20T02:11:13;24.53;;;12.00;;
3567;SDS011;1798;48.486;9.232;2022-12-20T02:13:50;30.83;;;15.00;;
3567;SDS011;1798;48.486;9.232;2022-12-20T02:16:24;25.17;;;14.17;;
3567;SDS011;1798;48.486;9.232;2022-12-20T02:18:54;20.87;;;12.17;;
3567;SDS011;1798;48.486;9.232;2022-12-20T02:21:26;24.57;;;16.37;;
3567;SDS011;1798;48.486;9.232;2022-12-20T02:24:12;31.43;;;13.70;;
3567;SDS011;1798;48.486;9.232;2022-12-20T02:27:13;23.47;;;14.60;;
3567;SDS011;1798;48.486;9.232;2022-12-20T02:30:13;31.33;;;15.40;;
3567;SDS011;1798;48.486;9.232;2022-12-20T02:32:43;23.57;;;14.47;;
3567;SDS011;1798;48.486;9.232;2022-12-20T02:35:18;23.70;;;14.73;;
3567;SDS011;1798;48.486;9.232;2022-12-20T02:37:50;26.50;;;13.40;;
3567;SDS011;1798;48.486;9.232;2022-12-20T02:40:19;23.50;;;12.10;;
3567;SDS011;1798;48.486;9.232;2022-12-20T02:42:48;28.10;;;11.63;;
3567;SDS011;1798;48.486;9.232;2022-12-20T02:45:19;20.30;;;11.77;;
3567;SDS011;1798;48.486;9.232;2022-12-20T02:47:47;27.27;;;13.13;;
3567;SDS011;1798;48.486;9.232;2022-12-20T02:50:16;21.10;;;10.50;;
3567;SDS011;1798;48.486;9.232;2022-12-20T02:52:44;24.73;;;13.30;;
3567;SDS011;1798;48.486;9.232;2022-12-20T02:55:11;31.43;;;15.27;;
3567;SDS011;1798;48.486;9.232;2022-12-20T02:57:41;27.03;;;14.83;;
3567;SDS011;1798;48.486;9.232;2022-12-20T03:00:11;27.40;;;14.77;;
3567;SDS011;1798;48.486;9.232;2022-12-20T03:02:41;28.90;;;14.80;;
3567;SDS011;1798;48.486;9.232;2022-12-20T03:05:26;46.27;;;15.73;;
3567;SDS011;1798;48.486;9.232;2022-12-20T03:07:53;28.57;;;12.30;;
3567;SDS011;1798;48.486;9.232;2022-12-20T03:10:20;27.10;;;11.10;;
3567;SDS011;1798;48.486;9.232;2022-12-20T03:12:47;22.03;;;12.47;;
3567;SDS011;1798;48.486;9.232;2022-12-20T03:15:14;20.90;;;10.20;;
3567;SDS011;1798;48.486;9.232;2022-12-20T03:17:42;18.53;;;10.77;;
3567;SDS011;1798;48.486;9.232;2022-12-20T03:20:09;24.57;;;11.27;;
3567;SDS011;1798;48.486;9.232;2022-12-20T03:22:36;23.07;;;10.93;;
3567;SDS011;1798;48.486;9.232;2022-12-20T03:25:04;26.07;;;10.73;;
3567;SDS011;1798;48.486;9.232;2022-12-20T03:27:31;21.67;;;12.87;;
3567;SDS011;1798;48.486;9.232;2022-12-20T03:29:58;22.00;;;10.90;;
3567;SDS011;1798;48.486;9.232;2022-12-20T03:32:25;22.47;;;12.93;;
3567;SDS011;1798;48.486;9.232;2022-12-20T03:34:53;22.73;;;11.77;;
3567;SDS011;1798;48.486;9.232;2022-12-20T03:37:20;24.00;;;13.87;;
3567;SDS011;1798;48.486;9.232;2022-12-20T03:39:47;19.73;;;10.17;;
3567;SDS011;1798;48.486;9.232;2022-12-20T03:42:14;33.00;;;15.00;;
3567;SDS011;1798;48.486;9.232;2022-12-20T03:44:40;21.63;;;11.50;;
3567;SDS011;1798;48.486;9.232;2022-12-20T03:47:07;26.90;;;12.40;;
3567;SDS011;1798;48.486;9.232;2022-12-20T03:49:34;27.13;;;14.10;;
3567;SDS011;1798;48.486;9.232;2022-12-20T03:52:02;24.90;;;14.20;;
3567;SDS011;1798;48.486;9.232;2022-12-20T03:54:29;26.20;;;11.97;;
3567;SDS011;1798;48.486;9.232;2022-12-20T03:56:56;25.93;;;13.87;;
3567;SDS011;1798;48.486;9.232;2022-12-20T03:59:23;20.60;;;12.30;;
3567;SDS011;1798;48.486;9.232;2022-12-20T04:01:49;19.97;;;12.00;;
3567;SDS011;1798;48.486;9.232;2022-12-20T04:04:16;30.00;;;12.37;;
3567;SDS011;1798;48.486;9.232;2022-12-20T04:06:43;26.60;;;10.60;;
3567;SDS011;1798;48.486;9.232;2022-12-20T04:09:11;24.50;;;10.93;;
3567;SDS011;1798;48.486;9.232;2022-12-20T04:11:38;26.03;;;11.63;;
3567;SDS011;1798;48.486;9.232;2022-12-20T04:14:05;28.87;;;12.70;;
3567;SDS011;1798;48.486;9.232;2022-12-20T04:16:32;24.20;;;11.17;;
3567;SDS011;1798;48.486;9.232;2022-12-20T04:18:59;27.27;;;12.00;;
3567;SDS011;1798;48.486;9.232;2022-12-20T04:21:26;29.87;;;13.37;;
3567;SDS011;1798;48.486;9.232;2022-12-20T04:23:54;24.63;;;11.57;;
3567;SDS011;1798;48.486;9.232;2022-12-20T04:26:22;29.50;;;15.10;;
3567;SDS011;1798;48.486;9.232;2022-12-20T04:28:49;30.40;;;12.23;;
3567;SDS011;1798;48.486;9.232;2022-12-20T04:31:16;26.47;;;12.90;;
3567;SDS011;1798;48.486;9.232;2022-12-20T04:33:43;32.00;;;14.10;;
3567;SDS011;1798;48.486;9.232;2022-12-20T04:36:10;24.33;;;11.13;;
3567;SDS011;1798;48.486;9.232;2022-12-20T04:38:36;23.70;;;12.80;;
3567;SDS011;1798;48.486;9.232;2022-12-20T04:41:03;29.43;;;13.57;;
3567;SDS011;1798;48.486;9.232;2022-12-20T04:43:32;25.90;;;13.77;;
3567;SDS011;1798;48.486;9.232;2022-12-20T04:45:58;23.63;;;11.90;;
3567;SDS011;1798;48.486;9.232;2022-12-20T04:48:26;23.33;;;12.73;;
3567;SDS011;1798;48.486;9.232;2022-12-20T04:50:53;24.60;;;13.40;;
3567;SDS011;1798;48.486;9.232;2022-12-20T04:53:21;28.53;;;13.53;;
3567;SDS011;1798;48.486;9.232;2022-12-20T04:56:06;23.20;;;11.93;;
3567;SDS011;1798;48.486;9.232;2022-12-20T04:58:34;26.90;;;12.10;;
3567;SDS011;1798;48.486;9.232;2022-12-20T05:01:01;25.27;;;12.10;;
3567;SDS011;1798;48.486;9.232;2022-12-20T05:03:28;40.43;;;13.40;;
3567;SDS011;1798;48.486;9.232;2022-12-20T05:05:55;22.90;;;12.90;;
3567;SDS011;1798;48.486;9.232;2022-12-20T05:08:21;32.10;;;14.80;;
3567;SDS011;1798;48.486;9.232;2022-12-20T05:10:48;30.17;;;14.23;;
3567;SDS011;1798;48.486;9.232;2022-12-20T05:13:15;37.80;;;18.87;;
3567;SDS011;1798;48.486;9.232;2022-12-20T05:15:43;41.40;;;21.07;;
3567;SDS011;1798;48.486;9.232;2022-12-20T05:18:10;39.07;;;20.23;;
3567;SDS011;1798;48.486;9.232;2022-12-20T05:20:36;42.70;;;19.07;;
3567;SDS011;1798;48.486;9.232;2022-12-20T05:23:03;28.07;;;15.33;;
3567;SDS011;1798;48.486;9.232;2022-12-20T05:25:48;28.60;;;14.90;;
3567;SDS011;1798;48.486;9.232;2022-12-20T05:28:29;33.17;;;18.30;;
3567;SDS011;1798;48.486;9.232;2022-12-20T05:30:58;27.30;;;14.87;;
3567;SDS011;1798;48.486;9.232;2022-12-20T05:33:26;33.00;;;14.80;;
3567;SDS011;1798;48.486;9.232;2022-12-20T05:35:53;29.73;;;14.13;;
3567;SDS011;1798;48.486;9.232;2022-12-20T05:38:20;31.50;;;15.40;;
3567;SDS011;1798;48.486;9.232;2022-12-20T05:40:47;36.87;;;17.70;;
3567;SDS011;1798;48.486;9.232;2022-12-20T05:43:14;30.77;;;16.47;;
3567;SDS011;1798;48.486;9.232;2022-12-20T05:45:44;45.17;;;22.37;;
3567;SDS011;1798;48.486;9.232;2022-12-20T05:48:12;51.47;;;20.47;;
3567;SDS011;1798;48.486;9.232;2022-12-20T05:50:40;36.83;;;16.93;;
3567;SDS011;1798;48.486;9.232;2022-12-20T05:53:08;55.07;;;20.07;;
3567;SDS011;1798;48.486;9.232;2022-12-20T05:55:34;28.80;;;14.23;;
3567;SDS011;1798;48.486;9.232;2022-12-20T05:58:01;55.20;;;22.27;;
3567;SDS011;1798;48.486;9.232;2022-12-20T06:00:28;39.90;;;19.13;;
3567;SDS011;1798;48.486;9.232;2022-12-20T06:02:54;46.03;;;17.37;;
3567;SDS011;1798;48.486;9.232;2022-12-20T06:05:22;52.23;;;21.43;;
3567;SDS011;1798;48.486;9.232;2022-12-20T06:07:50;36.63;;;15.87;;
3567;SDS011;1798;48.486;9.232;2022-12-20T06:10:17;45.57;;;21.57;;
3567;SDS011;1798;48.486;9.232;2022-12-20T06:12:43;53.20;;;23.87;;
3567;SDS011;1798;48.486;9.232;2022-12-20T06:15:10;29.27;;;15.40;;
3567;SDS011;1798;48.486;9.232;2022-12-20T06:17:37;46.87;;;23.67;;
3567;SDS011;1798;48.486;9.232;2022-12-20T06:20:04;46.63;;;24.40;;
3567;SDS011;1798;48.486;9.232;2022-12-20T06:22:33;36.20;;;15.33;;
3567;SDS011;1798;48.486;9.232;2022-12-20T06:25:01;51.30;;;23.27;;
3567;SDS011;1798;48.486;9.232;2022-12-20T06:27:28;37.10;;;18.37;;
3567;SDS011;1798;48.486;9.232;2022-12-20T06:29:55;42.90;;;20.37;;
3567;SDS011;1798;48.486;9.232;2022-12-20T06:32:22;41.20;;;22.40;;
3567;SDS011;1798;48.486;9.232;2022-12-20T06:34:49;41.43;;;22.27;;
3567;SDS011;1798;48.486;9.232;2022-12-20T06:37:16;31.50;;;18.37;;
3567;SDS011;1798;48.486;9.232;2022-12-20T06:39:44;38.60;;;21.40;;
3567;SDS011;1798;48.486;9.232;2022-12-20T06:42:10;30.20;;;17.70;;
3567;SDS011;1798;48.486;9.232;2022-12-20T06:44:37;34.73;;;19.30;;
3567;SDS011;1798;48.486;9.232;2022-12-20T06:47:04;40.53;;;18.57;;
3567;SDS011;1798;48.486;9.232;2022-12-20T06:49:30;31.17;;;17.60;;
3567;SDS011;1798;48.486;9.232;2022-12-20T06:51:57;32.83;;;17.47;;
3567;SDS011;1798;48.486;9.232;2022-12-20T06:54:24;43.00;;;19.47;;
3567;SDS011;1798;48.486;9.232;2022-12-20T06:56:52;37.80;;;19.43;;
3567;SDS011;1798;48.486;9.232;2022-12-20T06:59:18;40.40;;;22.00;;
3567;SDS011;1798;48.486;9.232;2022-12-20T07:01:45;29.10;;;18.53;;
3567;SDS011;1798;48.486;9.232;2022-12-20T07:04:12;36.40;;;19.00;;
3567;SDS011;1798;48.486;9.232;2022-12-20T07:06:39;39.00;;;18.53;;
3567;SDS011;1798;48.486;9.232;2022-12-20T07:09:05;37.83;;;17.67;;
3567;SDS011;1798;48.486;9.232;2022-12-20T07:11:33;39.57;;;18.00;;
3567;SDS011;1798;48.486;9.232;2022-12-20T07:14:01;37.63;;;16.97;;
3567;SDS011;1798;48.486;9.232;2022-12-20T07:16:27;37.80;;;18.40;;
3567;SDS011;1798;48.486;9.232;2022-12-20T07:18:57;41.23;;;17.70;;
3567;SDS011;1798;48.486;9.232;2022-12-20T07:21:24;34.80;;;19.30;;
3567;SDS011;1798;48.486;9.232;2022-12-20T07:23:50;33.03;;;17.97;;
3567;SDS011;1798;48.486;9.232;2022-12-20T07:26:17;52.07;;;20.53;;
3567;SDS011;1798;48.486;9.232;2022-12-20T07:28:44;35.87;;;18.33;;
3567;SDS011;1798;48.486;9.232;2022-12-20T07:31:12;28.60;;;16.80;;
3567;SDS011;1798;48.486;9.232;2022-12-20T07:33:39;44.90;;;20.80;;
3567;SDS011;1798;48.486;9.232;2022-12-20T07:36:07;41.73;;;23.17;;
3567;SDS011;1798;48.486;9.232;2022-12-20T07:38:36;33.53;;;20.40;;
3567;SDS011;1798;48.486;9.232;2022-12-20T07:41:05;35.13;;;20.00;;
3567;SDS011;1798;48.486;9.232;2022-12-20T07:43:32;32.53;;;16.53;;
3567;SDS011;1798;48.486;9.232;2022-12-20T07:46:00;49.30;;;18.13;;
3567;SDS011;1798;48.486;9.232;2022-12-20T07:48:28;32.17;;;17.40;;
3567;SDS011;1798;48.486;9.232;2022-12-20T07:50:56;31.87;;;17.00;;
3567;SDS011;1798;48.486;9.232;2022-12-20T07:53:25;30.23;;;15.37;;
3567;SDS011;1798;48.486;9.232;2022-12-20T07:55:53;30.50;;;14.27;;
3567;SDS011;1798;48.486;9.232;2022-12-20T07:58:21;28.93;;;16.70;;
3567;SDS011;1798;48.486;9.232;2022-12-20T08:00:48;26.70;;;16.10;;
3567;SDS011;1798;48.486;9.232;2022-12-20T08:03:15;49.63;;;18.50;;
3567;SDS011;1798;48.486;9.232;2022-12-20T08:05:46;31.47;;;16.37;;
3567;SDS011;1798;48.486;9.232;2022-12-20T08:08:16;34.50;;;17.30;;
3567;SDS011;1798;48.486;9.232;2022-12-20T08:10:43;32.60;;;16.30;;
3567;SDS011;1798;48.486;9.232;2022-12-20T08:13:10;25.20;;;14.10;;
3567;SDS011;1798;48.486;9.232;2022-12-20T08:15:38;29.73;;;15.37;;
3567;SDS011;1798;48.486;9.232;2022-12-20T08:18:05;30.83;;;16.30;;
3567;SDS011;1798;48.486;9.232;2022-12-20T08:20:31;28.87;;;16.03;;
3567;SDS011;1798;48.486;9.232;2022-12-20T08:23:00;32.53;;;17.10;;
3567;SDS011;1798;48.486;9.232;2022-12-20T08:25:28;23.90;;;14.10;;
3567;SDS011;1798;48.486;9.232;2022-12-20T08:27:55;29.50;;;14.70;;
3567;SDS011;1798;48.486;9.232;2022-12-20T08:30:21;32.00;;;15.03;;
3567;SDS011;1798;48.486;9.232;2022-12-20T08:32:48;27.07;;;14.03;;
3567;SDS011;1798;48.486;9.232;2022-12-20T08:35:15;23.07;;;12.43;;
3567;SDS011;1798;48.486;9.232;2022-12-20T08:37:42;28.37;;;12.43;;
3567;SDS011;1798;48.486;9.232;2022-12-20T08:40:11;25.80;;;13.60;;
3567;SDS011;1798;48.486;9.232;2022-12-20T08:42:38;35.77;;;14.80;;
3567;SDS011;1798;48.486;9.232;2022-12-20T08:45:05;34.00;;;17.00;;
3567;SDS011;1798;48.486;9.232;2022-12-20T08:47:32;31.07;;;17.73;;
3567;SDS011;1798;48.486;9.232;2022-12-20T08:49:59;29.77;;;15.43;;
3567;SDS011;1798;48.486;9.232;2022-12-20T08:52:27;30.80;;;16.00;;
3567;SDS011;1798;48.486;9.232;2022-12-20T08:54:54;37.53;;;17.10;;
3567;SDS011;1798;48.486;9.232;2022-12-20T08:57:22;27.70;;;14.47;;
3567;SDS011;1798;48.486;9.232;2022-12-20T08:59:48;37.57;;;16.00;;
3567;SDS011;1798;48.486;9.232;2022-12-20T09:02:15;30.97;;;16.37;;
3567;SDS011;1798;48.486;9.232;2022-12-20T09:04:41;28.53;;;15.77;;
3567;SDS011;1798;48.486;9.232;2022-12-20T09:07:08;29.27;;;14.20;;
3567;SDS011;1798;48.486;9.232;2022-12-20T09:09:35;27.00;;;12.87;;
3567;SDS011;1798;48.486;9.232;2022-12-20T09:12:02;34.17;;;14.47;;
3567;SDS011;1798;48.486;9.232;2022-12-20T09:14:30;26.97;;;13.90;;
3567;SDS011;1798;48.486;9.232;2022-12-20T09:16:57;32.80;;;15.90;;
3567;SDS011;1798;48.486;9.232;2022-12-20T09:19:24;28.93;;;16.87;;
3567;SDS011;1798;48.486;9.232;2022-12-20T09:21:50;36.33;;;17.33;;
3567;SDS011;1798;48.486;9.232;2022-12-20T09:24:19;36.90;;;16.00;;
3567;SDS011;1798;48.486;9.232;2022-12-20T09:26:46;68.30;;;17.37;;
3567;SDS011;1798;48.486;9.232;2022-12-20T09:29:12;29.73;;;15.60;;
3567;SDS011;1798;48.486;9.232;2022-12-20T09:31:40;39.30;;;16.03;;
3567;SDS011;1798;48.486;9.232;2022-12-20T09:34:07;23.77;;;15.17;;
3567;SDS011;1798;48.486;9.232;2022-12-20T09:36:34;41.00;;;18.17;;
3567;SDS011;1798;48.486;9.232;2022-12-20T09:39:02;28.57;;;16.23;;
3567;SDS011;1798;48.486;9.232;2022-12-20T09:41:30;26.73;;;15.50;;
3567;SDS011;1798;48.486;9.232;2022-12-20T09:43:59;26.20;;;15.47;;
3567;SDS011;1798;48.486;9.232;2022-12-20T09:46:29;49.57;;;22.93;;
3567;SDS011;1798;48.486;9.232;2022-12-20T09:48:57;44.53;;;19.43;;
3567;SDS011;1798;48.486;9.232;2022-12-20T09:51:30;43.67;;;25.50;;
3567;SDS011;1798;48.486;9.232;2022-12-20T09:54:14;53.70;;;28.20;;
3567;SDS011;1798;48.486;9.232;2022-12-20T09:56:45;54.20;;;24.03;;
3567;SDS011;1798;48.486;9.232;2022-12-20T09:59:17;34.37;;;20.83;;
3567;SDS011;1798;48.486;9.232;2022-12-20T10:01:45;57.27;;;27.40;;
3567;SDS011;1798;48.486;9.232;2022-12-20T10:04:17;25.13;;;15.93;;
3567;SDS011;1798;48.486;9.232;2022-12-20T10:06:49;28.40;;;17.30;;
3567;SDS011;1798;48.486;9.232;2022-12-20T10:09:29;30.77;;;17.30;;
3567;SDS011;1798;48.486;9.232;2022-12-20T10:12:08;64.40;;;21.57;;
3567;SDS011;1798;48.486;9.232;2022-12-20T10:14:44;45.90;;;22.70;;
3567;SDS011;1798;48.486;9.232;2022-12-20T10:17:30;52.50;;;21.30;;
3567;SDS011;1798;48.486;9.232;2022-12-20T10:20:12;25.87;;;15.23;;
3567;SDS011;1798;48.486;9.232;2022-12-20T10:22:45;34.33;;;17.80;;
3567;SDS011;1798;48.486;9.232;2022-12-20T10:25:16;24.90;;;15.70;;
3567;SDS011;1798;48.486;9.232;2022-12-20T10:27:44;33.10;;;14.53;;
3567;SDS011;1798;48.486;9.232;2022-12-20T10:30:13;36.23;;;19.07;;
3567;SDS011;1798;48.486;9.232;2022-12-20T10:32:41;32.37;;;16.70;;
3567;SDS011;1798;48.486;9.232;2022-12-20T10:35:18;29.00;;;16.43;;
3567;SDS011;1798;48.486;9.232;2022-12-20T10:37:55;24.70;;;14.13;;
3567;SDS011;1798;48.486;9.232;2022-12-20T10:40:25;24.97;;;13.60;;
3567;SDS011;1798;48.486;9.232;2022-12-20T10:42:53;29.13;;;15.80;;
3567;SDS011;1798;48.486;9.232;2022-12-20T10:45:25;36.63;;;18.30;;
3567;SDS011;1798;48.486;9.232;2022-12-20T10:47:57;25.00;;;15.13;;
3567;SDS011;1798;48.486;9.232;2022-12-20T10:50:27;23.40;;;12.50;;
3567;SDS011;1798;48.486;9.232;2022-12-20T10:55:46;40.17;;;14.33;;
3567;SDS011;1798;48.486;9.232;2022-12-20T10:58:14;22.57;;;12.97;;
3567;SDS011;1798;48.486;9.232;2022-12-20T11:00:42;29.97;;;16.57;;
3567;SDS011;1798;48.486;9.232;2022-12-20T11:03:11;19.50;;;11.10;;
3567;SDS011;1798;48.486;9.232;2022-12-20T11:05:44;21.03;;;12.73;;
3567;SDS011;1798;48.486;9.232;2022-12-20T11:08:20;24.03;;;11.87;;
3567;SDS011;1798;48.486;9.232;2022-12-20T11:10:48;31.63;;;16.00;;
3567;SDS011;1798;48.486;9.232;2022-12-20T11:13:19;25.27;;;13.80;;
3567;SDS011;1798;48.486;9.232;2022-12-20T11:15:47;27.57;;;13.60;;
3567;SDS011;1798;48.486;9.232;2022-12-20T11:18:17;35.03;;;15.63;;
3567;SDS011;1798;48.486;9.232;2022-12-20T11:20:50;23.53;;;14.10;;
3567;SDS011;1798;48.486;9.232;2022-12-20T11:23:22;24.93;;;15.40;;
3567;SDS011;1798;48.486;9.232;2022-12-20T11:25:59;21.87;;;13.60;;
3567;SDS011;1798;48.486;9.232;2022-12-20T11:28:39;22.30;;;13.83;;
3567;SDS011;1798;48.486;9.232;2022-12-20T11:31:14;19.83;;;12.03;;
3567;SDS011;1798;48.486;9.232;2022-12-20T11:33:55;18.70;;;11.07;;
3567;SDS011;1798;48.486;9.232;2022-12-20T11:36:31;17.13;;;10.60;;
3567;SDS011;1798;48.486;9.232;2022-12-20T11:39:08;17.77;;;10.50;;
3567;SDS011;1798;48.486;9.232;2022-12-20T11:41:41;22.17;;;12.07;;
3567;SDS011;1798;48.486;9.232;2022-12-20T11:44:14;32.63;;;14.47;;
3567;SDS011;1798;48.486;9.232;2022-12-20T11:46:51;22.80;;;14.53;;
3567;SDS011;1798;48.486;9.232;2022-12-20T11:49:33;25.97;;;12.67;;
3567;SDS011;1798;48.486;9.232;2022-12-20T11:52:08;31.17;;;14.60;;
3567;SDS011;1798;48.486;9.232;2022-12-20T11:54:40;22.83;;;11.83;;
3567;SDS011;1798;48.486;9.232;2022-12-20T11:57:11;22.90;;;12.27;;
3567;SDS011;1798;48.486;9.232;2022-12-20T11:59:41;27.20;;;13.93;;
3567;SDS011;1798;48.486;9.232;2022-12-20T12:02:12;25.03;;;13.13;;
3567;SDS011;1798;48.486;9.232;2022-12-20T12:04:41;23.90;;;13.47;;
3567;SDS011;1798;48.486;9.232;2022-12-20T12:07:12;29.20;;;15.00;;
3567;SDS011;1798;48.486;9.232;2022-12-20T12:09:44;34.50;;;16.30;;
3567;SDS011;1798;48.486;9.232;2022-12-20T12:12:18;33.77;;;18.77;;
3567;SDS011;1798;48.486;9.232;2022-12-20T12:14:51;29.77;;;13.57;;
3567;SDS011;1798;48.486;9.232;2022-12-20T12:17:23;39.00;;;20.13;;
3567;SDS011;1798;48.486;9.232;2022-12-20T12:19:55;24.33;;;14.53;;
3567;SDS011;1798;48.486;9.232;2022-12-20T12:22:32;35.83;;;16.70;;
3567;SDS011;1798;48.486;9.232;2022-12-20T12:25:02;30.00;;;15.00;;
3567;SDS011;1798;48.486;9.232;2022-12-20T12:27:34;34.87;;;13.73;;
3567;SDS011;1798;48.486;9.232;2022-12-20T12:30:01;26.70;;;16.27;;
3567;SDS011;1798;48.486;9.232;2022-12-20T12:32:28;24.77;;;13.13;;
3567;SDS011;1798;48.486;9.232;2022-12-20T12:35:05;20.60;;;12.57;;
3567;SDS011;1798;48.486;9.232;2022-12-20T12:40:32;27.70;;;14.30;;
3567;SDS011;1798;48.486;9.232;2022-12-20T12:43:10;22.47;;;13.23;;
3567;SDS011;1798;48.486;9.232;2022-12-20T12:45:45;28.33;;;12.93;;
3567;SDS011;1798;48.486;9.232;2022-12-20T12:48:15;20.50;;;13.60;;
3567;SDS011;1798;48.486;9.232;2022-12-20T12:50:43;53.80;;;22.30;;
3567;SDS011;1798;48.486;9.232;2022-12-20T12:53:13;23.60;;;13.33;;
3567;SDS011;1798;48.486;9.232;2022-12-20T12:55:43;28.10;;;12.77;;
3567;SDS011;1798;48.486;9.232;2022-12-20T12:58:14;19.97;;;13.07;;
3567;SDS011;1798;48.486;9.232;2022-12-20T13:00:59;54.67;;;23.43;;
3567;SDS011;1798;48.486;9.232;2022-12-20T13:03:38;30.80;;;16.37;;
3567;SDS011;1798;48.486;9.232;2022-12-20T13:09:17;29.43;;;15.90;;
3567;SDS011;1798;48.486;9.232;2022-12-20T13:11:46;33.53;;;18.20;;
3567;SDS011;1798;48.486;9.232;2022-12-20T13:20:16;36.13;;;18.60;;
3567;SDS011;1798;48.486;9.232;2022-12-20T13:25:40;100.90;;;38.57;;
3567;SDS011;1798;48.486;9.232;2022-12-20T13:31:30;91.30;;;34.27;;
3567;SDS011;1798;48.486;9.232;2022-12-20T13:34:01;33.83;;;19.17;;
3567;SDS011;1798;48.486;9.232;2022-12-20T13:36:29;25.40;;;16.30;;
3567;SDS011;1798;48.486;9.232;2022-12-20T13:39:00;33.27;;;21.43;;
3567;SDS011;1798;48.486;9.232;2022-12-20T13:41:38;56.30;;;27.93;;
3567;SDS011;1798;48.486;9.232;2022-12-20T13:47:11;45.90;;;22.27;;
3567;SDS011;1798;48.486;9.232;2022-12-20T13:49:58;29.03;;;16.40;;
3567;SDS011;1798;48.486;9.232;2022-12-20T13:52:26;30.30;;;18.40;;
3567;SDS011;1798;48.486;9.232;2022-12-20T13:54:55;30.60;;;17.20;;
3567;SDS011;1798;48.486;9.232;2022-12-20T13:57:29;43.97;;;19.13;;
3567;SDS011;1798;48.486;9.232;2022-12-20T13:59:58;26.10;;;15.20;;
3567;SDS011;1798;48.486;9.232;2022-12-20T14:02:28;32.67;;;17.10;;
3567;SDS011;1798;48.486;9.232;2022-12-20T14:04:57;31.10;;;17.50;;
3567;SDS011;1798;48.486;9.232;2022-12-20T14:07:26;32.83;;;19.00;;
3567;SDS011;1798;48.486;9.232;2022-12-20T14:09:54;39.00;;;16.97;;
3567;SDS011;1798;48.486;9.232;2022-12-20T14:12:22;40.27;;;16.17;;
3567;SDS011;1798;48.486;9.232;2022-12-20T14:14:50;26.37;;;14.07;;
3567;SDS011;1798;48.486;9.232;2022-12-20T14:17:21;26.33;;;13.93;;
3567;SDS011;1798;48.486;9.232;2022-12-20T14:20:00;27.00;;;14.47;;
3567;SDS011;1798;48.486;9.232;2022-12-20T14:22:31;36.93;;;14.73;;
3567;SDS011;1798;48.486;9.232;2022-12-20T14:24:58;27.33;;;13.50;;
3567;SDS011;1798;48.486;9.232;2022-12-20T14:27:25;24.03;;;12.30;;
3567;SDS011;1798;48.486;9.232;2022-12-20T14:29:55;23.73;;;13.00;;
3567;SDS011;1798;48.486;9.232;2022-12-20T14:32:22;23.83;;;13.47;;
3567;SDS011;1798;48.486;9.232;2022-12-20T14:34:49;24.17;;;13.30;;
3567;SDS011;1798;48.486;9.232;2022-12-20T14:37:16;23.73;;;12.60;;
3567;SDS011;1798;48.486;9.232;2022-12-20T14:39:53;26.50;;;14.23;;
3567;SDS011;1798;48.486;9.232;2022-12-20T14:42:20;34.87;;;16.73;;
3567;SDS011;1798;48.486;9.232;2022-12-20T14:44:47;25.47;;;13.70;;
3567;SDS011;1798;48.486;9.232;2022-12-20T14:47:15;38.23;;;16.03;;
3567;SDS011;1798;48.486;9.232;2022-12-20T14:49:46;29.50;;;15.67;;
3567;SDS011;1798;48.486;9.232;2022-12-20T14:52:14;25.13;;;14.60;;
3567;SDS011;1798;48.486;9.232;2022-12-20T14:54:43;32.13;;;14.90;;
3567;SDS011;1798;48.486;9.232;2022-12-20T14:57:18;31.47;;;16.07;;
3567;SDS011;1798;48.486;9.232;2022-12-20T14:59:55;30.53;;;18.37;;
3567;SDS011;1798;48.486;9.232;2022-12-20T15:02:36;35.00;;;17.10;;
3567;SDS011;1798;48.486;9.232;2022-12-20T15:05:06;64.47;;;18.70;;
3567;SDS011;1798;48.486;9.232;2022-12-20T15:07:34;31.27;;;15.97;;
3567;SDS011;1798;48.486;9.232;2022-12-20T15:10:06;59.00;;;16.00;;
3567;SDS011;1798;48.486;9.232;2022-12-20T15:12:33;25.43;;;14.87;;
3567;SDS011;1798;48.486;9.232;2022-12-20T15:14:59;34.40;;;17.53;;
3567;SDS011;1798;48.486;9.232;2022-12-20T15:17:26;25.50;;;13.20;;
3567;SDS011;1798;48.486;9.232;2022-12-20T15:19:54;24.60;;;14.17;;
3567;SDS011;1798;48.486;9.232;2022-12-20T15:22:21;33.70;;;18.40;;
3567;SDS011;1798;48.486;9.232;2022-12-20T15:24:48;28.93;;;16.10;;